Time;durP1;ratioP1;P1;durP2;ratioP2;P2;SDS_P1;SDS_P2;PMS_P1;PMS_P2;Temp;Humidity;BMP_temperature;BMP_pressure;BME280_temperature;BME280_humidity;BME280_pressure;Samples;Min_cycle;Max_cycle;Signal;HPM_P1;HPM_P2
2022/11/06 00:01:13;;;;;;;27.50;14.60;;;;;;;6.31;87.12;95418.30;1722651;83;21036;-70
2022/11/06 00:03:40;;;;;;;24.93;14.40;;;;;;;6.27;87.75;95425.32;1723967;83;21070;-70
2022/11/06 00:09:02;;;;;;;23.13;14.37;;;;;;;6.28;87.90;95428.81;1725162;83;21113;-70
2022/11/06 00:11:30;;;;;;;27.60;14.90;;;;;;;6.34;88.54;95436.63;1723814;83;21071;-70
2022/11/06 00:13:57;;;;;;;22.63;13.63;;;;;;;6.39;88.73;95425.68;1721907;83;21155;-70
2022/11/06 00:16:24;;;;;;;23.97;12.90;;;;;;;6.47;88.86;95436.98;1723406;83;21048;-70
2022/11/06 00:18:51;;;;;;;23.23;12.83;;;;;;;6.47;88.14;95433.05;1723630;83;21044;-70
2022/11/06 00:21:24;;;;;;;15.53;10.80;;;;;;;6.49;88.55;95428.68;1724172;83;21064;-70
2022/11/06 00:23:52;;;;;;;;;;;;;;;6.52;88.21;95437.41;1725468;83;21040;-70
2022/11/06 00:26:22;;;;;;;22.87;11.00;;;;;;;6.45;88.18;95439.19;1689884;84;20409;-70
2022/11/06 00:28:50;;;;;;;18.70;9.90;;;;;;;6.46;88.69;95439.63;1749543;82;21039;-70
2022/11/06 00:31:21;;;;;;;14.55;8.95;;;;;;;6.48;88.37;95436.13;1719701;82;21071;-69
2022/11/06 00:33:48;;;;;;;18.30;9.80;;;;;;;6.47;87.80;95430.44;1724507;81;21017;-70
2022/11/06 00:36:20;;;;;;;17.23;10.40;;;;;;;6.37;87.44;95435.30;1699417;84;21042;-70
2022/11/06 00:38:49;;;;;;;16.93;10.00;;;;;;;6.36;88.19;95429.63;1726017;82;21102;-70
2022/11/06 00:41:16;;;;;;;19.13;9.87;;;;;;;6.42;88.52;95426.10;1722441;83;21083;-70
2022/11/06 00:43:50;;;;;;;19.00;10.73;;;;;;;6.50;88.94;95427.82;1721584;83;21061;-71
2022/11/06 00:46:17;;;;;;;19.90;10.45;;;;;;;6.51;88.42;95426.06;1724881;83;21008;-70
2022/11/06 00:48:45;;;;;;;14.97;9.60;;;;;;;6.56;88.86;95419.49;1727566;83;21026;-70
2022/11/06 00:51:16;;;;;;;15.33;8.83;;;;;;;6.61;88.44;95415.95;1726180;83;21016;-70
2022/11/06 00:53:43;;;;;;;17.13;9.37;;;;;;;6.46;86.88;95415.60;1724492;83;21083;-70
2022/11/06 00:56:18;;;;;;;14.87;9.63;;;;;;;6.31;86.89;95423.99;1723831;83;21567;-70
2022/11/06 00:58:46;;;;;;;17.30;8.60;;;;;;;6.23;87.07;95426.20;1721329;83;21513;-70
2022/11/06 01:01:26;;;;;;;21.93;10.60;;;;;;;6.11;86.95;95431.48;1723101;83;21056;-70
2022/11/06 01:03:58;;;;;;;18.30;9.43;;;;;;;6.13;87.95;95433.67;1724025;83;21039;-70
2022/11/06 01:06:29;;;;;;;18.73;9.47;;;;;;;6.15;87.96;95435.85;1723248;83;21577;-69
2022/11/06 01:08:57;;;;;;;16.53;9.57;;;;;;;6.05;87.53;95436.32;1723482;83;21490;-69
2022/11/06 01:11:29;;;;;;;15.87;9.30;;;;;;;6.02;87.73;95440.68;1722702;83;21018;-69
2022/11/06 01:13:59;;;;;;;18.67;9.40;;;;;;;6.02;88.17;95436.34;1722682;83;21067;-70
2022/11/06 01:16:27;;;;;;;18.60;8.63;;;;;;;6.04;88.11;95433.70;1724051;83;21045;-69
2022/11/06 01:18:55;;;;;;;14.30;8.63;;;;;;;6.07;88.36;95433.67;1724965;83;21051;-70
2022/11/06 01:21:26;;;;;;;13.43;8.73;;;;;;;6.09;88.22;95439.78;1725953;83;21051;-69
2022/11/06 01:24:01;;;;;;;15.97;7.83;;;;;;;6.03;87.47;95435.89;1724161;83;22232;-69
2022/11/06 01:26:29;;;;;;;15.03;9.18;;;;;;;5.90;87.12;95437.65;1724281;83;21509;-70
2022/11/06 01:28:56;;;;;;;13.13;8.80;;;;;;;5.79;87.66;95432.86;1725579;82;21517;-70
2022/11/06 01:31:28;;;;;;;13.73;8.47;;;;;;;5.69;87.72;95435.08;1725738;83;21034;-70
2022/11/06 01:33:57;;;;;;;13.73;9.27;;;;;;;5.59;87.74;95437.73;1726255;83;21076;-70
2022/11/06 01:36:25;;;;;;;20.80;9.77;;;;;;;5.56;87.85;95445.56;1721815;83;21083;-70
2022/11/06 01:38:56;;;;;;;14.37;7.90;;;;;;;5.57;88.25;95437.30;1722512;83;21059;-70
2022/11/06 01:41:38;;;;;;;10.47;6.60;;;;;;;5.57;88.26;95435.55;1721634;83;21099;-69
2022/11/06 01:44:42;;;;;;;13.27;6.50;;;;;;;5.51;87.68;95433.37;1722371;83;21106;-69
2022/11/06 01:47:27;;;;;;;11.50;7.72;;;;;;;5.42;87.95;95431.20;1723334;81;21057;-69
2022/11/06 01:49:58;;;;;;;10.60;6.63;;;;;;;5.32;87.99;95428.61;1721206;83;21083;-69
2022/11/06 01:52:27;;;;;;;12.53;7.00;;;;;;;5.30;88.03;95431.66;1722217;83;21040;-69
2022/11/06 01:54:59;;;;;;;11.47;6.80;;;;;;;5.31;88.22;95437.31;1721152;83;21566;-70
2022/11/06 01:57:26;;;;;;;11.37;6.13;;;;;;;5.32;88.22;95441.70;1720305;83;21100;-70
2022/11/06 01:59:54;;;;;;;18.53;8.10;;;;;;;5.31;88.17;95445.16;1723470;83;21089;-69
2022/11/06 02:02:22;;;;;;;13.90;6.67;;;;;;;5.32;88.50;95448.23;1725319;83;21146;-70
2022/11/06 02:04:49;;;;;;;8.87;5.30;;;;;;;5.32;88.40;95445.17;1725649;82;21020;-69
2022/11/06 02:07:18;;;;;;;15.73;6.13;;;;;;;5.35;88.69;95448.23;1724144;83;21526;-70
2022/11/06 02:09:45;;;;;;;12.70;6.33;;;;;;;5.45;89.11;95463.48;1722022;83;21028;-70
2022/11/06 02:12:35;;;;;;;12.67;6.70;;;;;;;5.46;88.71;95459.54;1723214;83;21822;-70
2022/11/06 02:15:07;;;;;;;11.63;6.10;;;;;;;5.55;89.15;95458.67;1724478;83;20997;-69
2022/11/06 02:18:25;;;;;;;15.10;6.40;;;;;;;5.56;88.79;95461.27;1725183;82;21010;-70
2022/11/06 02:21:26;;;;;;;13.97;5.83;;;;;;;5.58;88.56;95463.45;1721547;83;21063;-70
2022/11/06 02:24:13;;;;;;;10.40;6.03;;;;;;;5.48;88.02;95463.47;1720001;83;21053;-69
2022/11/06 02:27:11;;;;;;;11.27;5.80;;;;;;;5.40;88.53;95463.04;1723999;83;21171;-69
2022/11/06 02:29:56;;;;;;;12.93;5.83;;;;;;;5.48;88.71;95461.72;1723573;83;21066;-69
2022/11/06 02:32:34;;;;;;;10.97;5.00;;;;;;;5.50;88.75;95463.05;1720196;83;21080;-69
2022/11/06 02:35:06;;;;;;;8.23;4.83;;;;;;;5.52;88.61;95464.78;1720538;83;21606;-69
2022/11/06 02:37:36;;;;;;;11.60;5.70;;;;;;;5.46;88.08;95459.98;1724299;83;21389;-69
2022/11/06 02:40:07;;;;;;;9.67;5.00;;;;;;;5.41;88.44;95458.23;1721335;83;21067;-70
2022/11/06 02:42:38;;;;;;;9.83;5.37;;;;;;;5.43;88.31;95457.80;1726355;83;21039;-69
2022/11/06 02:45:10;;;;;;;9.20;5.03;;;;;;;5.33;87.86;95465.22;1724358;83;21496;-70
2022/11/06 02:47:39;;;;;;;10.97;5.43;;;;;;;5.39;88.83;95461.72;1721612;83;21558;-70
2022/11/06 02:50:12;;;;;;;10.43;6.40;;;;;;;5.43;88.40;95470.02;1724236;83;21042;-69
2022/11/06 02:52:44;;;;;;;10.98;6.33;;;;;;;5.32;87.66;95467.86;1724285;83;21031;-70
2022/11/06 02:55:27;;;;;;;17.23;7.57;;;;;;;5.28;87.96;95471.33;1725794;82;21044;-70
2022/11/06 02:58:12;;;;;;;11.18;6.03;;;;;;;5.34;88.96;95463.47;1722099;82;21573;-70
2022/11/06 03:00:41;;;;;;;11.63;6.30;;;;;;;5.39;88.94;95467.84;1715977;81;21071;-70
2022/11/06 03:03:13;;;;;;;9.67;5.67;;;;;;;5.40;88.51;95474.81;1724586;83;21054;-69
2022/11/06 03:05:50;;;;;;;12.70;6.17;;;;;;;5.32;87.49;95471.78;1722644;82;21059;-69
2022/11/06 03:08:51;;;;;;;10.87;5.70;;;;;;;5.15;87.29;95477.00;1717606;83;21017;-69
2022/11/06 03:11:29;;;;;;;10.93;5.90;;;;;;;5.04;87.24;95487.87;1720241;83;21122;-69
2022/11/06 03:14:18;;;;;;;11.70;6.10;;;;;;;4.99;88.16;95483.97;1723987;83;21048;-69
2022/11/06 03:16:53;;;;;;;10.43;5.33;;;;;;;4.97;88.26;95485.27;1723350;83;21564;-69
2022/11/06 03:19:41;;;;;;;11.57;6.30;;;;;;;4.90;87.81;95490.48;1722307;82;21012;-69
2022/11/06 03:22:25;;;;;;;11.23;5.90;;;;;;;4.81;87.98;95489.15;1727580;83;21152;-69
2022/11/06 03:25:17;;;;;;;9.30;6.33;;;;;;;4.77;88.16;95489.59;1713087;82;21008;-69
2022/11/06 03:28:04;;;;;;;11.93;6.00;;;;;;;4.77;88.56;95483.05;1723711;83;21084;-69
2022/11/06 03:30:39;;;;;;;12.97;5.73;;;;;;;4.74;88.41;95486.53;1725734;83;21022;-69
2022/11/06 03:33:39;;;;;;;12.67;5.90;;;;;;;4.70;88.57;95488.69;1705290;83;21056;-69
2022/11/06 03:36:11;;;;;;;10.20;5.40;;;;;;;4.70;88.72;95484.77;1719837;82;21037;-70
2022/11/06 03:38:46;;;;;;;12.27;5.70;;;;;;;4.74;89.05;95498.73;1723609;82;21122;-70
2022/11/06 03:41:18;;;;;;;13.40;5.37;;;;;;;4.74;88.92;95508.75;1722944;83;21047;-69
2022/11/06 03:43:48;;;;;;;8.60;4.87;;;;;;;4.74;88.76;95503.97;1724503;82;21538;-69
2022/11/06 03:46:19;;;;;;;10.60;5.50;;;;;;;4.70;88.50;95507.42;1722316;83;21115;-69
2022/11/06 03:48:56;;;;;;;15.37;6.87;;;;;;;4.67;88.30;95510.04;1717619;83;21060;-69
2022/11/06 03:51:53;;;;;;;12.60;6.87;;;;;;;4.67;88.72;95506.98;1725141;83;21096;-69
2022/11/06 03:54:43;;;;;;;11.70;6.53;;;;;;;4.66;89.10;95506.97;1726620;83;21141;-69
2022/11/06 03:57:23;;;;;;;11.93;7.30;;;;;;;4.63;89.19;95517.42;1724084;82;21557;-69
2022/11/06 03:59:55;;;;;;;13.83;6.97;;;;;;;4.66;89.45;95515.70;1721891;83;21075;-69
2022/11/06 04:02:25;;;;;;;16.13;6.57;;;;;;;4.70;89.38;95508.30;1724194;83;21052;-69
2022/11/06 04:05:09;;;;;;;9.37;4.97;;;;;;;4.74;89.25;95513.11;1725883;83;21030;-69
2022/11/06 04:16:06;;;;;;;8.00;4.70;;;;;;;4.67;89.82;95502.20;1724940;83;21079;-70
2022/11/06 04:18:32;;;;;;;14.90;4.60;;;;;;;4.84;90.38;95506.14;1720867;83;21048;-69
2022/11/06 04:21:27;;;;;;;11.97;4.30;;;;;;;4.88;89.74;95512.69;1725978;81;21061;-70
2022/11/06 04:27:31;;;;;;;10.03;4.80;;;;;;;4.84;88.72;95513.57;1725065;81;21091;-69
2022/11/06 04:30:11;;;;;;;8.27;4.80;;;;;;;4.88;89.42;95518.36;1723027;83;21079;-69
2022/11/06 04:33:03;;;;;;;15.90;7.20;;;;;;;4.95;89.36;95520.13;1725847;83;21034;-69
2022/11/06 04:35:38;;;;;;;9.07;4.23;;;;;;;4.97;89.24;95520.56;1721408;82;21504;-69
2022/11/06 04:38:33;;;;;;;10.43;5.00;;;;;;;5.12;90.06;95524.08;1722949;83;21516;-69
2022/11/06 04:41:33;;;;;;;12.53;5.23;;;;;;;5.17;89.12;95520.59;1720731;83;21012;-70
2022/11/06 04:44:01;;;;;;;10.93;5.07;;;;;;;5.04;88.04;95520.15;1721663;83;21079;-69
2022/11/06 04:46:33;;;;;;;8.90;4.50;;;;;;;4.94;87.89;95519.25;1721857;83;21078;-69
2022/11/06 04:49:03;;;;;;;7.80;4.47;;;;;;;4.90;87.94;95508.78;1723292;83;21044;-69
2022/11/06 04:51:34;;;;;;;8.67;5.57;;;;;;;4.92;88.43;95516.20;1722482;83;21073;-69
2022/11/06 04:54:02;;;;;;;9.67;5.07;;;;;;;5.05;89.03;95517.09;1725126;83;21094;-69
2022/11/06 04:56:33;;;;;;;9.33;5.70;;;;;;;4.98;87.62;95520.12;1723100;82;21123;-69
2022/11/06 04:58:59;;;;;;;11.60;7.27;;;;;;;4.94;87.93;95521.00;1725886;83;21524;-70
2022/11/06 05:01:26;;;;;;;12.43;6.60;;;;;;;4.90;87.83;95522.72;1724145;83;21501;-69
2022/11/06 05:03:53;;;;;;;12.10;7.40;;;;;;;4.87;87.86;95521.41;1724168;83;21096;-69
2022/11/06 05:06:20;;;;;;;14.30;7.53;;;;;;;4.88;88.19;95520.53;1724766;83;21027;-69
2022/11/06 05:08:47;;;;;;;13.77;7.43;;;;;;;4.85;88.32;95524.45;1721207;83;21079;-69
2022/11/06 05:11:14;;;;;;;17.13;7.47;;;;;;;4.84;88.32;95529.26;1724377;83;21109;-69
2022/11/06 05:13:40;;;;;;;13.67;7.10;;;;;;;4.85;88.36;95529.68;1710709;83;21103;-69
2022/11/06 05:16:07;;;;;;;14.23;7.93;;;;;;;4.89;88.60;95536.67;1725329;83;21039;-69
2022/11/06 05:18:34;;;;;;;16.47;9.90;;;;;;;4.92;88.55;95531.89;1725766;83;21553;-69
2022/11/06 05:23:48;;;;;;;15.87;9.40;;;;;;;4.98;88.70;95544.95;1722923;83;21526;-69
2022/11/06 05:26:14;;;;;;;15.50;8.57;;;;;;;4.92;88.37;95545.83;1721936;83;21494;-69
2022/11/06 05:28:41;;;;;;;13.77;8.40;;;;;;;4.86;88.18;95547.54;1722961;83;21066;-69
2022/11/06 05:31:07;;;;;;;13.47;7.73;;;;;;;4.87;88.45;95552.78;1722998;83;21030;-69
2022/11/06 05:33:34;;;;;;;12.93;8.63;;;;;;;4.84;88.14;95560.62;1722227;83;21111;-69
2022/11/06 05:36:03;;;;;;;24.70;15.40;;;;;;;4.74;88.30;95562.34;1722666;83;21493;-69
2022/11/06 05:38:30;;;;;;;26.83;14.17;;;;;;;4.72;88.45;95569.73;1725935;83;21043;-69
2022/11/06 05:40:57;;;;;;;22.40;12.83;;;;;;;4.74;88.66;95568.00;1725977;83;21532;-69
2022/11/06 05:43:24;;;;;;;18.10;10.63;;;;;;;4.78;88.77;95573.66;1727271;81;21576;-69
2022/11/06 05:45:50;;;;;;;28.27;13.27;;;;;;;4.78;89.18;95573.22;1721621;83;21027;-69
2022/11/06 05:48:17;;;;;;;16.87;11.07;;;;;;;4.78;89.14;95579.75;1715798;83;21068;-69
2022/11/06 05:50:44;;;;;;;25.07;13.53;;;;;;;4.81;89.25;95581.95;1720343;83;21012;-69
2022/11/06 05:53:13;;;;;;;16.47;11.60;;;;;;;4.83;89.31;95577.60;1722777;83;21022;-69
2022/11/06 05:55:39;;;;;;;23.20;13.30;;;;;;;4.86;89.33;95578.91;1725953;83;21057;-69
2022/11/06 05:58:06;;;;;;;27.40;17.20;;;;;;;4.88;89.61;95584.58;1723063;83;21533;-69
2022/11/06 06:00:33;;;;;;;35.60;19.17;;;;;;;4.98;89.50;95581.56;1723087;83;21597;-69
2022/11/06 06:03:01;;;;;;;30.10;17.57;;;;;;;5.06;89.60;95584.20;1722994;83;21018;-69
2022/11/06 06:05:28;;;;;;;33.87;17.50;;;;;;;5.09;89.17;95585.51;1722663;83;21546;-69
2022/11/06 06:07:54;;;;;;;29.60;16.13;;;;;;;5.15;89.21;95589.47;1724514;82;21043;-69
2022/11/06 06:10:21;;;;;;;31.93;17.47;;;;;;;5.21;89.69;95593.39;1723750;83;21130;-69
2022/11/06 06:12:51;;;;;;;36.87;24.53;;;;;;;5.31;90.20;95598.20;1724468;83;21014;-69
2022/11/06 06:15:18;;;;;;;31.27;20.77;;;;;;;5.45;90.40;95599.55;1725067;83;21031;-69
2022/11/06 06:17:45;;;;;;;32.73;17.77;;;;;;;5.62;90.77;95602.62;1723094;83;21664;-69
2022/11/06 06:20:12;;;;;;;26.80;17.37;;;;;;;5.81;90.86;95598.69;1723390;83;21032;-69
2022/11/06 06:22:39;;;;;;;36.00;24.03;;;;;;;5.97;90.74;95608.74;1724175;83;21106;-69
2022/11/06 06:25:07;;;;;;;32.83;25.23;;;;;;;6.08;90.42;95595.22;1726896;83;21027;-69
2022/11/06 06:27:34;;;;;;;40.90;29.20;;;;;;;6.19;90.08;95603.05;1721816;83;21046;-69
2022/11/06 06:30:00;;;;;;;42.10;25.13;;;;;;;6.23;89.47;95606.12;1721964;83;21111;-69
2022/11/06 06:32:27;;;;;;;38.97;29.13;;;;;;;6.30;89.72;95606.55;1726836;81;21009;-69
2022/11/06 06:34:54;;;;;;;33.40;21.73;;;;;;;6.40;89.63;95612.61;1728210;83;21104;-69
2022/11/06 06:37:21;;;;;;;28.73;18.60;;;;;;;6.42;88.57;95609.11;1728308;83;20995;-69
2022/11/06 06:39:47;;;;;;;29.27;17.93;;;;;;;6.43;88.13;95616.13;1720901;83;21559;-69
2022/11/06 06:42:14;;;;;;;26.67;17.07;;;;;;;6.43;88.14;95621.36;1723098;83;21010;-69
2022/11/06 06:44:41;;;;;;;28.37;17.70;;;;;;;6.56;88.69;95618.72;1725891;83;21102;-69
2022/11/06 06:47:08;;;;;;;27.77;15.97;;;;;;;6.66;88.75;95617.37;1725893;83;21036;-69
2022/11/06 06:49:35;;;;;;;29.97;16.80;;;;;;;6.70;88.20;95626.08;1723374;83;21039;-69
2022/11/06 06:52:03;;;;;;;23.97;17.27;;;;;;;6.81;88.41;95624.76;1723151;83;21063;-69
2022/11/06 06:54:29;;;;;;;36.80;22.50;;;;;;;6.94;88.51;95619.44;1727071;83;21030;-69
2022/11/06 06:56:56;;;;;;;37.57;23.20;;;;;;;7.01;88.28;95623.38;1725715;83;21026;-69
2022/11/06 06:59:23;;;;;;;47.70;28.20;;;;;;;7.12;88.64;95620.25;1722534;82;21081;-69
2022/11/06 07:01:49;;;;;;;62.93;34.60;;;;;;;7.16;88.02;95612.80;1725481;83;21011;-70
2022/11/06 07:04:16;;;;;;;67.58;38.15;;;;;;;7.20;87.32;95620.20;1724780;83;21290;-69
2022/11/06 07:06:43;;;;;;;74.50;42.20;;;;;;;7.08;86.40;95620.72;1723783;83;21112;-69
2022/11/06 07:09:10;;;;;;;90.60;47.60;;;;;;;6.99;86.54;95621.19;1725654;83;21050;-69
2022/11/06 07:11:37;;;;;;;78.30;43.17;;;;;;;7.04;87.20;95619.41;1721746;83;21157;-69
2022/11/06 07:14:04;;;;;;;60.27;32.80;;;;;;;7.00;86.75;95622.92;1725172;83;21046;-70
2022/11/06 07:16:31;;;;;;;46.27;27.73;;;;;;;7.01;86.86;95632.11;1727328;83;21082;-69
2022/11/06 07:18:58;;;;;;;58.28;32.05;;;;;;;6.98;86.77;95629.50;1726376;83;21103;-70
2022/11/06 07:21:25;;;;;;;59.70;34.73;;;;;;;6.97;87.00;95619.00;1723741;83;21036;-70
2022/11/06 07:23:51;;;;;;;56.05;32.98;;;;;;;7.02;87.46;95621.17;1720666;83;21028;-69
2022/11/06 07:26:18;;;;;;;46.00;28.38;;;;;;;7.11;87.68;95619.83;1722204;83;21040;-69
2022/11/06 07:28:44;;;;;;;45.48;28.15;;;;;;;7.19;87.61;95621.09;1726327;83;21042;-69
2022/11/06 07:31:11;;;;;;;44.85;28.12;;;;;;;7.26;87.71;95618.43;1725942;83;21078;-69
2022/11/06 07:33:38;;;;;;;51.18;31.55;;;;;;;7.31;87.37;95618.41;1726817;82;21018;-69
2022/11/06 07:36:09;;;;;;;54.35;34.63;;;;;;;7.35;87.24;95617.50;1722862;83;21050;-69
2022/11/06 07:38:38;;;;;;;49.48;30.62;;;;;;;7.41;87.00;95620.52;1724913;83;21042;-70
2022/11/06 07:41:08;;;;;;;52.78;32.23;;;;;;;7.44;86.98;95616.14;1724197;83;21034;-69
2022/11/06 07:43:35;;;;;;;51.28;32.67;;;;;;;7.50;86.96;95619.16;1721573;83;21040;-70
2022/11/06 07:46:06;;;;;;;54.73;35.00;;;;;;;7.55;87.11;95622.18;1727030;83;21611;-70
2022/11/06 07:48:33;;;;;;;63.08;42.15;;;;;;;7.65;87.14;95619.05;1724373;82;21089;-70
2022/11/06 07:51:06;;;;;;;64.90;42.70;;;;;;;7.73;86.86;95617.69;1724210;83;21035;-69
2022/11/06 07:53:33;;;;;;;58.10;36.33;;;;;;;7.82;86.95;95620.70;1722391;83;21083;-70
2022/11/06 07:56:00;;;;;;;51.55;32.78;;;;;;;7.90;86.44;95622.83;1726053;83;21045;-70
2022/11/06 07:58:28;;;;;;;59.00;35.13;;;;;;;8.01;86.73;95620.97;1725579;83;21026;-70
2022/11/06 08:00:57;;;;;;;51.48;34.18;;;;;;;8.13;86.36;95620.00;1726768;81;21030;-70
2022/11/06 08:03:28;;;;;;;55.67;34.78;;;;;;;8.22;86.45;95621.25;1724956;82;21094;-70
2022/11/06 08:05:55;;;;;;;60.58;36.30;;;;;;;8.39;86.81;95619.75;1724801;83;21036;-70
2022/11/06 08:08:22;;;;;;;57.20;34.90;;;;;;;8.54;86.88;95617.45;1726751;82;20995;-69
2022/11/06 08:10:50;;;;;;;50.28;32.17;;;;;;;8.67;86.29;95613.83;1723201;83;21057;-69
2022/11/06 08:13:17;;;;;;;51.02;33.08;;;;;;;8.75;85.97;95617.23;1721895;82;21097;-69
2022/11/06 08:15:44;;;;;;;50.70;30.88;;;;;;;8.85;85.93;95615.38;1726692;83;21544;-70
2022/11/06 08:18:11;;;;;;;50.67;30.30;;;;;;;8.99;84.72;95610.80;1724518;83;21030;-70
2022/11/06 08:20:39;;;;;;;55.43;37.78;;;;;;;9.14;84.94;95604.92;1726449;83;21573;-70
2022/11/06 08:23:09;;;;;;;63.73;37.78;;;;;;;9.29;85.00;95605.59;1724265;83;21046;-70
2022/11/06 08:25:37;;;;;;;55.30;35.63;;;;;;;9.49;85.70;95613.22;1722863;83;21007;-70
2022/11/06 08:28:04;;;;;;;57.65;34.65;;;;;;;9.74;85.69;95610.23;1722109;83;21008;-70
2022/11/06 08:30:31;;;;;;;72.20;42.48;;;;;;;9.99;85.22;95610.72;1723587;83;21032;-69
2022/11/06 08:33:05;;;;;;;89.50;51.08;;;;;;;10.17;85.02;95607.78;1726844;83;21515;-70
2022/11/06 08:35:32;;;;;;;;;;;;;;;10.42;85.72;95604.75;1729379;83;21030;-71
2022/11/06 08:37:59;;;;;;;52.75;29.57;;;;;;;10.67;85.52;95612.23;1692571;84;20385;-70
2022/11/06 08:40:25;;;;;;;37.17;23.85;;;;;;;10.82;84.55;95611.48;1738347;82;21001;-71
2022/11/06 08:42:52;;;;;;;45.85;28.50;;;;;;;10.97;84.21;95617.38;1755519;81;21000;-70
2022/11/06 08:45:18;;;;;;;44.75;27.32;;;;;;;11.04;83.08;95605.80;1759289;81;21110;-70
2022/11/06 08:47:45;;;;;;;42.40;30.43;;;;;;;11.06;82.28;95609.25;1755503;81;21039;-70
2022/11/06 08:50:12;;;;;;;50.30;29.02;;;;;;;11.18;82.81;95615.60;1757905;81;21091;-70
2022/11/06 08:52:38;;;;;;;44.70;26.73;;;;;;;11.23;82.95;95613.73;1755471;81;21055;-69
2022/11/06 08:55:06;;;;;;;45.15;27.37;;;;;;;11.30;82.58;95616.27;1754174;80;21091;-70
2022/11/06 08:57:33;;;;;;;30.75;21.05;;;;;;;11.39;83.19;95617.38;1757080;81;21061;-70
2022/11/06 08:59:59;;;;;;;33.18;20.05;;;;;;;11.53;83.58;95615.31;1753825;81;21023;-70
2022/11/06 09:02:26;;;;;;;44.18;22.40;;;;;;;11.60;82.69;95612.09;1757441;81;21012;-70
2022/11/06 09:04:52;;;;;;;34.45;22.45;;;;;;;11.67;82.89;95610.59;1757538;81;21135;-70
2022/11/06 09:07:19;;;;;;;31.17;21.48;;;;;;;11.77;82.73;95614.33;1759403;81;21008;-70
2022/11/06 09:09:45;;;;;;;29.52;19.55;;;;;;;11.88;82.62;95607.94;1753692;81;21024;-70
2022/11/06 09:12:12;;;;;;;29.25;21.87;;;;;;;12.00;82.27;95605.92;1756166;81;21059;-70
2022/11/06 09:14:39;;;;;;;30.88;20.32;;;;;;;12.11;82.36;95606.52;1757113;81;21019;-71
2022/11/06 09:17:05;;;;;;;30.17;20.72;;;;;;;12.28;81.95;95607.44;1745597;81;21553;-71
2022/11/06 09:19:32;;;;;;;37.50;21.73;;;;;;;12.65;81.21;95603.39;1757515;81;21098;-71
2022/11/06 09:21:58;;;;;;;34.70;19.95;;;;;;;12.65;81.21;95603.39;1751588;80;21051;-70
2022/11/06 09:24:25;;;;;;;33.20;19.50;;;;;;;12.79;79.66;95605.66;1760861;81;21567;-71
2022/11/06 09:26:51;;;;;;;27.77;19.48;;;;;;;12.99;79.05;95602.00;1755936;80;21082;-71
2022/11/06 09:29:18;;;;;;;26.00;17.73;;;;;;;12.99;79.05;95602.00;1760135;81;21019;-71
2022/11/06 09:31:44;;;;;;;29.92;18.57;;;;;;;13.18;79.18;95605.47;1765762;81;21454;-71
2022/11/06 09:34:11;;;;;;;26.37;16.80;;;;;;;13.27;77.09;95610.52;1765256;81;21023;-71
2022/11/06 09:36:37;;;;;;;26.50;17.05;;;;;;;13.29;74.90;95608.70;1762550;81;21066;-71
2022/11/06 09:39:04;;;;;;;31.35;18.02;;;;;;;13.30;76.72;95605.13;1762086;81;21035;-71
2022/11/06 09:41:53;;;;;;;29.95;16.48;;;;;;;13.32;75.33;95601.98;1764514;81;21015;-70
2022/11/06 09:44:43;;;;;;;29.63;18.32;;;;;;;13.49;75.79;95606.80;1761695;81;21026;-71
2022/11/06 09:47:15;;;;;;;28.12;16.50;;;;;;;13.63;75.79;95598.41;1758574;81;21078;-71
2022/11/06 09:49:52;;;;;;;24.57;15.63;;;;;;;13.80;73.86;95600.09;1759491;81;21078;-71
2022/11/06 09:52:33;;;;;;;27.48;17.55;;;;;;;13.93;74.21;95593.94;1764023;81;21038;-71
2022/11/06 09:55:14;;;;;;;31.27;16.40;;;;;;;14.11;74.66;95596.92;1701981;83;21568;-70
2022/11/06 09:57:53;;;;;;;25.48;17.67;;;;;;;14.40;72.22;95584.89;1706071;84;21065;-71
2022/11/06 10:00:21;;;;;;;31.05;19.52;;;;;;;14.74;70.35;95596.17;1711791;83;21556;-71
2022/11/06 10:03:13;;;;;;;27.30;18.37;;;;;;;15.02;70.43;95584.10;1723557;82;21018;-71
2022/11/06 10:05:42;;;;;;;23.90;15.03;;;;;;;15.29;70.87;95584.42;1723205;83;21031;-72
2022/11/06 10:08:27;;;;;;;43.50;31.40;;;;;;;15.72;71.07;95577.97;1726308;83;21070;-72
2022/11/06 10:11:18;;;;;;;36.55;22.98;;;;;;;16.06;66.61;95577.98;1725989;83;21129;-72
2022/11/06 10:14:27;;;;;;;36.68;26.40;;;;;;;16.38;64.28;95568.68;1724667;83;21502;-71
2022/11/06 10:17:19;;;;;;;29.70;19.05;;;;;;;16.63;65.14;95569.81;1720760;83;21090;-72
2022/11/06 10:20:09;;;;;;;27.75;16.40;;;;;;;16.93;64.27;95563.65;1720550;83;21189;-72
2022/11/06 10:22:40;;;;;;;23.10;15.32;;;;;;;17.28;64.00;95570.55;1723203;83;21035;-72
2022/11/06 10:25:27;;;;;;;25.77;16.97;;;;;;;17.72;62.26;95562.31;1726158;83;21087;-72
2022/11/06 10:28:29;;;;;;;30.45;20.27;;;;;;;18.15;63.63;95565.62;1721653;83;21059;-71
2022/11/06 10:31:04;;;;;;;29.57;20.57;;;;;;;18.41;60.80;95560.79;1724741;83;21034;-72
2022/11/06 10:34:00;;;;;;;25.90;16.70;;;;;;;18.72;57.93;95560.09;1722206;82;21024;-72
2022/11/06 10:36:32;;;;;;;22.62;16.27;;;;;;;18.76;55.85;95561.71;1721837;83;21064;-73
2022/11/06 10:39:03;;;;;;;30.60;18.98;;;;;;;18.91;55.71;95561.39;1725937;83;21584;-73
2022/11/06 10:41:36;;;;;;;23.77;16.23;;;;;;;19.19;55.10;95564.81;1724474;83;21062;-72
2022/11/06 10:44:14;;;;;;;21.90;16.73;;;;;;;19.33;54.13;95555.59;1722944;83;21135;-71
2022/11/06 10:46:49;;;;;;;22.82;15.28;;;;;;;19.38;53.06;95551.34;1723953;83;21016;-72
2022/11/06 10:49:30;;;;;;;22.82;14.05;;;;;;;19.32;52.89;95551.65;1717275;83;21030;-71
2022/11/06 10:52:14;;;;;;;25.97;16.20;;;;;;;19.56;51.21;95546.31;1726016;81;21143;-73
2022/11/06 10:55:22;;;;;;;30.27;14.98;;;;;;;19.95;52.26;95542.87;1714825;83;21040;-73
2022/11/06 10:58:05;;;;;;;23.95;13.78;;;;;;;20.15;50.95;95541.75;1719828;83;21033;-72
2022/11/06 11:00:33;;;;;;;22.35;14.28;;;;;;;20.07;49.74;95532.33;1725768;83;21038;-72
2022/11/06 11:03:05;;;;;;;36.15;14.20;;;;;;;20.34;50.11;95534.38;1724336;83;21122;-73
2022/11/06 11:05:39;;;;;;;22.27;15.20;;;;;;;20.69;49.72;95524.78;1721042;83;21530;-72
2022/11/06 11:08:24;;;;;;;27.55;14.35;;;;;;;20.70;49.10;95528.69;1724856;83;21034;-72
2022/11/06 11:10:51;;;;;;;23.05;13.05;;;;;;;21.02;49.16;95533.95;1711927;82;21021;-72
2022/11/06 11:13:20;;;;;;;20.37;12.00;;;;;;;21.16;47.65;95530.41;1760873;81;21019;-72
2022/11/06 11:15:48;;;;;;;26.30;12.90;;;;;;;21.25;48.41;95529.85;1762140;79;21039;-72
2022/11/06 11:18:22;;;;;;;23.50;13.72;;;;;;;21.50;47.64;95533.25;1762238;80;21474;-73
2022/11/06 11:20:51;;;;;;;23.95;13.88;;;;;;;21.63;46.38;95531.14;1764591;80;21027;-72
2022/11/06 11:23:23;;;;;;;23.75;14.15;;;;;;;21.79;47.44;95530.04;1714267;82;21538;-73
2022/11/06 11:25:54;;;;;;;21.50;14.03;;;;;;;22.01;45.85;95528.67;1744617;81;21032;-73
2022/11/06 11:28:28;;;;;;;21.25;13.00;;;;;;;22.24;46.00;95522.68;1742841;81;21071;-73
2022/11/06 11:31:08;;;;;;;24.80;13.68;;;;;;;22.58;46.06;95523.59;1747697;82;21023;-73
2022/11/06 11:33:37;;;;;;;19.70;12.50;;;;;;;22.77;43.22;95532.16;1726614;82;21020;-76
2022/11/06 11:36:06;;;;;;;21.50;11.57;;;;;;;22.91;44.51;95527.20;1743560;82;21087;-75
2022/11/06 11:38:39;;;;;;;18.85;10.70;;;;;;;23.10;40.57;95528.16;1727480;82;21075;-73
2022/11/06 11:41:19;;;;;;;19.10;10.32;;;;;;;23.40;43.34;95520.25;1732418;81;21498;-75
2022/11/06 11:44:12;;;;;;;16.20;9.58;;;;;;;23.44;39.51;95516.39;1703637;84;21018;-74
2022/11/06 11:46:47;;;;;;;;;;;;;;;23.51;41.80;95517.19;1697006;84;21075;-74
2022/11/06 11:49:32;;;;;;;14.47;9.43;;;;;;;23.61;40.31;95520.55;1726140;83;20125;-73
2022/11/06 11:52:03;;;;;;;15.32;10.43;;;;;;;23.68;39.96;95517.80;1725353;83;21043;-74
2022/11/06 11:54:33;;;;;;;16.42;11.35;;;;;;;23.80;40.92;95523.69;1756315;81;21078;-74
2022/11/06 11:57:11;;;;;;;24.52;12.65;;;;;;;23.96;39.73;95520.73;1759250;81;21079;-74
2022/11/06 11:59:45;;;;;;;19.65;11.60;;;;;;;23.83;39.82;95523.46;1753123;80;21113;-74
2022/11/06 12:02:20;;;;;;;15.90;9.90;;;;;;;23.69;38.83;95519.55;1758464;81;21035;-74
2022/11/06 12:05:00;;;;;;;16.73;10.43;;;;;;;23.63;39.24;95520.81;1755984;81;21020;-74
2022/11/06 12:07:34;;;;;;;18.90;10.25;;;;;;;23.62;39.53;95521.80;1756002;81;21566;-74
2022/11/06 12:10:05;;;;;;;23.12;10.55;;;;;;;23.59;39.26;95519.34;1758227;81;21019;-74